VCBIWARR

Guest
Details From VCBI - BANDARANAIKE INTL COLOMBO
To WARR - Surabaya Juanda
Flight Number -
Tags decoded
Created
Modified
Stats Distance 2,487 nm / 4,605 km
Max Altitude 0 ft / 0 m
Waypoints 4
Social Downloads 0
Likes 0
Share VATSIM

Download

Looking for another format? Having issues loading an existing format? Contact us
Advertisement - Login to hide

Notes

Requested: VCBI WIII WADD VOMM WARR

Route

VCBI WIII WADD WARR

ID Type Via Altitude Latitude Longitude Leg Dist Tot Dist Heading (true) Name
O VCBI APT - 0 ft / 0 m 7.18075˚ 79.88412˚ - 0 nm - BANDARANAIKE INTL COLOMBO
WIII APT - 0 ft / 0 m -6.12574˚ 106.65640˚ 1792 nm 1792 nm 116° / 116° Jakarta Sukarno-Hatta Intl
WADD APT - 0 ft / 0 m -8.74817˚ 115.16717˚ 530 nm 2322 nm 108° / 107° Denpasar Ngurah Rai Intl
O WARR APT - 0 ft / 0 m -7.37983˚ 112.78686˚ 163 nm 2486 nm 300° / 300° Surabaya Juanda

Altitude Profile

Advertisement - Login to hide

Weather


0- 5 10 15 20 25 30 35+ Temperature / ° C

Clouds and Precipitation
Forecast for 2017-12-16 00:00 UTC. Updated 25 minutes ago

Ground ~20,000 ft ~40,000 ft Winds

VCBI

Details ICAO VCBI (CMB)
Name BANDARANAIKE INTL COLOMBO
Region Sri Lanka
Timezone Asia/Colombo (UTC+5.5)
Stats Elevation 30 ft / 9 m (AMSL)
Location 7.180754° 79.884118°
Runways 1
Magnetic Variation 2.067° W

METAR

VCBI 152110Z 05006KT 7000 -SHRA FEW010 SCT015 25/23 Q1012 NOSIG

Decode

TAF

Not found

Departure Runways

ID Width Length Bearing (true) Bearing (mag) Surface Threshold Offset Overrun Length
04 148 ft / 45 m 11,018 ft / 3,358 m 37.25° 39.32° Asphalt 0 ft / 0 m 215 ft / 66 m
22 148 ft / 45 m 11,018 ft / 3,358 m 217.25° 219.32° Asphalt 0 ft / 0 m 300 ft / 91 m

WARR

Details ICAO WARR (SUB)
Name Surabaya Juanda
Region Indonesia
Timezone Asia/Jakarta (UTC+7.0)
Stats Elevation 9 ft / 3 m (AMSL)
Location -7.379832° 112.786858°
Runways 1
Magnetic Variation 0.952° E

METAR

WARR 152100Z 22003KT 3000 BR FEW020 25/24 Q1009 NOSIG

Decode

TAF

TAF TAF WARR 151700Z 1518/1618 29003KT 7000 FEW020 TEMPO 1520/1600 4000 HZ BECMG 1600/1602 29010KT 9999 TEMPO 1608/1613 3000 TSRA SCT018CB

Decode

Destination Runways

ID Width Length Bearing (true) Bearing (mag) Surface Threshold Offset Overrun Length
10 148 ft / 45 m 9,836 ft / 2,998 m 99.32° 98.37° Asphalt 0 ft / 0 m 328 ft / 100 m
28 148 ft / 45 m 9,836 ft / 2,998 m 279.32° 278.37° Asphalt 0 ft / 0 m 328 ft / 100 m

Approach Navaids

Runway Type Ident Frequency Range Bearing (true) Bearing (mag) Slope Elevation
10 Localiser ISBY 110.10 MHz 18 nm / 33 km 99.30° 98.34° - 8 ft / 2 m (AMSL)
10 Glidescope ISBY 110.10 MHz 10 nm / 19 km 99.32° 98.36° 3.00° 9 ft / 3 m (AMSL)
10 DME ISBY 110.10 MHz 18 nm / 33 km - - - 8 ft / 2 m (AMSL)